createdAt,value
2022-10-28T00:00:09.275Z,8.40
2022-10-28T00:00:34.594Z,8.40
2022-10-28T00:01:09.462Z,8.41
2022-10-28T00:01:24.700Z,8.40
2022-10-28T00:01:37.400Z,8.40
2022-10-28T00:01:50.122Z,8.41
2022-10-28T00:02:02.793Z,8.41
2022-10-28T00:02:15.613Z,8.40
2022-10-28T00:02:28.714Z,8.40
2022-10-28T00:02:42.386Z,8.43
2022-10-28T00:02:55.439Z,8.40
2022-10-28T00:03:08.328Z,8.41
2022-10-28T00:03:21.131Z,8.40
2022-10-28T00:03:34.093Z,8.41
2022-10-28T00:03:48.271Z,8.41
2022-10-28T00:04:02.495Z,8.43
2022-10-28T00:04:15.327Z,8.43
2022-10-28T00:04:27.941Z,8.41
2022-10-28T00:04:40.580Z,8.43
2022-10-28T00:04:53.167Z,8.44
2022-10-28T00:05:06.475Z,8.41
2022-10-28T00:05:19.106Z,8.44
2022-10-28T00:05:34.656Z,8.41
2022-10-28T00:05:48.263Z,8.44
2022-10-28T00:06:04.825Z,8.44
2022-10-28T00:06:19.413Z,8.44
2022-10-28T00:06:34.265Z,8.43
2022-10-28T00:06:46.892Z,8.44
2022-10-28T00:07:00.455Z,8.44
2022-10-28T00:07:13.219Z,8.45
2022-10-28T00:07:25.861Z,8.44
2022-10-28T00:07:38.446Z,8.44
2022-10-28T00:07:51.250Z,8.44
2022-10-28T00:08:04.215Z,8.44
2022-10-28T00:08:16.824Z,8.44
2022-10-28T00:08:30.419Z,8.44
2022-10-28T00:08:43.349Z,8.46
2022-10-28T00:08:56.491Z,8.44
2022-10-28T00:09:12.123Z,8.45
2022-10-28T00:09:25.219Z,8.46
2022-10-28T00:09:37.835Z,8.43
2022-10-28T00:09:51.444Z,8.45
2022-10-28T00:10:04.714Z,8.46
2022-10-28T00:10:17.492Z,8.46
2022-10-28T00:10:30.165Z,8.46
2022-10-28T00:10:42.751Z,8.46
2022-10-28T00:11:02.383Z,8.47
2022-10-28T00:11:17.853Z,8.47
2022-10-28T00:11:32.551Z,8.47
2022-10-28T00:11:46.562Z,8.48
2022-10-28T00:11:59.148Z,8.48
2022-10-28T00:12:11.774Z,8.48
2022-10-28T00:12:24.332Z,8.48
2022-10-28T00:12:37.798Z,8.47
2022-10-28T00:12:51.407Z,8.48
2022-10-28T00:13:04.037Z,8.49
2022-10-28T00:13:16.656Z,8.49
2022-10-28T00:13:29.267Z,8.50
2022-10-28T00:13:43.225Z,8.49
2022-10-28T00:13:57.254Z,8.50
2022-10-28T00:14:11.872Z,8.51
2022-10-28T00:14:24.472Z,8.52
2022-10-28T00:14:37.278Z,8.51
2022-10-28T00:14:49.909Z,8.51
2022-10-28T00:15:02.617Z,8.50
2022-10-28T00:15:15.324Z,8.51
2022-10-28T00:15:27.967Z,8.51
2022-10-28T00:15:41.643Z,8.51
2022-10-28T00:15:54.220Z,8.51
2022-10-28T00:16:09.932Z,8.51
2022-10-28T00:16:24.927Z,8.52
2022-10-28T00:16:38.371Z,8.50
2022-10-28T00:16:51.983Z,8.52
2022-10-28T00:17:04.548Z,8.52
2022-10-28T00:17:17.207Z,8.51
2022-10-28T00:17:29.822Z,8.52
2022-10-28T00:17:42.428Z,8.52
2022-10-28T00:17:55.339Z,8.53
2022-10-28T00:18:08.258Z,8.53
2022-10-28T00:18:20.957Z,8.53
2022-10-28T00:18:34.565Z,8.54
2022-10-28T00:18:47.452Z,8.53
2022-10-28T00:19:00.986Z,8.53
2022-10-28T00:19:14.600Z,8.53
2022-10-28T00:19:28.199Z,8.53
2022-10-28T00:19:40.783Z,8.54
2022-10-28T00:19:53.491Z,8.53
2022-10-28T00:20:07.285Z,8.54
2022-10-28T00:20:19.868Z,8.54
2022-10-28T00:20:32.469Z,8.54
2022-10-28T00:20:45.052Z,8.54
2022-10-28T00:21:01.955Z,8.53
2022-10-28T00:21:16.944Z,8.54
2022-10-28T00:21:31.699Z,8.53
2022-10-28T00:21:45.277Z,8.53
2022-10-28T00:21:58.842Z,8.54
2022-10-28T00:22:11.425Z,8.54
2022-10-28T00:22:24.117Z,8.54
2022-10-28T00:22:36.699Z,8.52
2022-10-28T00:22:49.278Z,8.55
2022-10-28T00:23:01.847Z,8.54
2022-10-28T00:23:14.449Z,8.54
2022-10-28T00:23:27.244Z,8.53
2022-10-28T00:23:41.420Z,8.54
2022-10-28T00:23:54.378Z,8.53
2022-10-28T00:24:08.966Z,8.54
2022-10-28T00:24:21.652Z,8.54
2022-10-28T00:24:34.299Z,8.55
2022-10-28T00:24:46.914Z,8.54
2022-10-28T00:25:00.527Z,8.54
2022-10-28T00:25:13.132Z,8.55
2022-10-28T00:25:25.742Z,8.55
2022-10-28T00:25:38.395Z,8.56
2022-10-28T00:25:50.956Z,8.56
2022-10-28T00:26:09.031Z,8.57
2022-10-28T00:26:23.463Z,8.56
2022-10-28T00:26:39.241Z,8.56
2022-10-28T00:26:53.175Z,8.57
2022-10-28T00:27:05.755Z,8.57
2022-10-28T00:27:18.323Z,8.58
2022-10-28T00:27:31.570Z,8.57
2022-10-28T00:27:44.198Z,8.58
2022-10-28T00:27:56.794Z,8.57
2022-10-28T00:28:09.380Z,8.58
2022-10-28T00:28:23.096Z,8.58
2022-10-28T00:28:36.237Z,8.58
2022-10-28T00:28:51.362Z,8.59
2022-10-28T00:29:06.405Z,8.58
2022-10-28T00:29:20.754Z,8.57
2022-10-28T00:29:33.317Z,8.58
2022-10-28T00:29:46.967Z,8.59
2022-10-28T00:29:59.537Z,8.57
2022-10-28T00:30:12.462Z,8.58
2022-10-28T00:30:25.085Z,8.56
2022-10-28T00:30:37.707Z,8.56
2022-10-28T00:30:50.417Z,8.57
2022-10-28T00:31:06.167Z,8.57
2022-10-28T00:31:20.699Z,8.56
2022-10-28T00:31:36.007Z,8.55
2022-10-28T00:31:49.030Z,8.57
2022-10-28T00:32:01.653Z,8.56
2022-10-28T00:32:14.272Z,8.56
2022-10-28T00:32:28.947Z,8.56
2022-10-28T00:32:41.517Z,8.56
2022-10-28T00:32:54.429Z,8.55
2022-10-28T00:33:07.172Z,8.55
2022-10-28T00:33:20.734Z,8.55
2022-10-28T00:33:33.791Z,8.55
2022-10-28T00:33:46.732Z,8.55
2022-10-28T00:34:01.050Z,8.56
2022-10-28T00:34:15.084Z,8.55
2022-10-28T00:34:28.783Z,8.57
2022-10-28T00:34:41.628Z,8.57
2022-10-28T00:34:54.279Z,8.57
2022-10-28T00:35:07.876Z,8.56
2022-10-28T00:35:20.443Z,8.56
2022-10-28T00:35:33.931Z,8.57
2022-10-28T00:35:46.663Z,8.57
2022-10-28T00:36:08.608Z,8.56
2022-10-28T00:36:24.020Z,8.57
2022-10-28T00:36:38.592Z,8.58
2022-10-28T00:36:51.321Z,8.58
2022-10-28T00:37:03.902Z,8.58
2022-10-28T00:37:16.496Z,8.59
2022-10-28T00:37:29.062Z,8.57
2022-10-28T00:37:41.660Z,8.58
2022-10-28T00:37:55.249Z,8.59
2022-10-28T00:38:07.867Z,8.59
2022-10-28T00:38:20.436Z,8.60
2022-10-28T00:38:33.031Z,8.61
2022-10-28T00:38:47.289Z,8.61
2022-10-28T00:39:01.756Z,8.61
2022-10-28T00:39:17.731Z,8.61
2022-10-28T00:39:30.560Z,8.62
2022-10-28T00:39:43.111Z,8.61
2022-10-28T00:39:55.687Z,8.63
2022-10-28T00:40:09.504Z,8.63
2022-10-28T00:40:22.334Z,8.62
2022-10-28T00:40:35.083Z,8.64
2022-10-28T00:40:47.688Z,8.63
2022-10-28T00:41:00.254Z,8.62
2022-10-28T00:41:17.298Z,8.64
2022-10-28T00:41:32.727Z,8.64
2022-10-28T00:41:47.559Z,8.63
2022-10-28T00:42:03.693Z,8.62
2022-10-28T00:42:22.028Z,8.63
2022-10-28T00:42:35.628Z,8.64
2022-10-28T00:42:48.285Z,8.63
2022-10-28T00:43:00.899Z,8.64
2022-10-28T00:43:13.561Z,8.64
2022-10-28T00:43:34.891Z,8.63
2022-10-28T00:43:51.607Z,8.62
2022-10-28T00:44:43.861Z,8.62
2022-10-28T00:44:58.382Z,8.64
2022-10-28T00:45:11.703Z,8.63
2022-10-28T00:45:25.961Z,8.63
2022-10-28T00:45:39.015Z,8.62
2022-10-28T00:45:51.716Z,8.64
2022-10-28T00:46:09.974Z,8.63
2022-10-28T00:46:30.228Z,8.62
2022-10-28T00:46:47.619Z,8.63
2022-10-28T00:47:00.429Z,8.63
2022-10-28T00:47:18.276Z,8.64
2022-10-28T00:47:40.996Z,8.65
2022-10-28T00:47:57.008Z,8.63
2022-10-28T00:48:09.949Z,8.63
2022-10-28T00:48:22.594Z,8.63
2022-10-28T00:48:36.209Z,8.64
2022-10-28T00:48:54.186Z,8.64
2022-10-28T00:49:15.019Z,8.63
2022-10-28T00:49:30.295Z,8.64
2022-10-28T00:49:45.933Z,8.64
2022-10-28T00:50:07.022Z,8.64
2022-10-28T00:50:30.305Z,8.66
2022-10-28T00:50:48.823Z,8.66
2022-10-28T00:51:01.567Z,8.65
2022-10-28T00:51:15.400Z,8.63
2022-10-28T00:51:32.015Z,8.63
2022-10-28T00:51:47.612Z,8.65
2022-10-28T00:52:04.229Z,8.64
2022-10-28T00:52:20.911Z,8.62
2022-10-28T00:52:33.920Z,8.63
2022-10-28T00:52:54.087Z,8.65
2022-10-28T00:53:09.947Z,8.66
2022-10-28T00:53:27.671Z,8.66
2022-10-28T00:53:42.681Z,8.65
2022-10-28T00:53:56.257Z,8.63
2022-10-28T00:54:09.244Z,8.65
2022-10-28T00:54:22.797Z,8.64
2022-10-28T00:54:35.799Z,8.64
2022-10-28T00:54:50.758Z,8.65
2022-10-28T00:55:04.067Z,8.65
2022-10-28T00:55:20.316Z,8.66
2022-10-28T00:55:35.116Z,8.65
2022-10-28T00:55:49.209Z,8.66
2022-10-28T00:56:03.497Z,8.67
2022-10-28T00:56:17.347Z,8.66
2022-10-28T00:56:35.427Z,8.68
2022-10-28T00:56:51.759Z,8.67
2022-10-28T00:57:11.013Z,8.68
2022-10-28T00:57:28.967Z,8.68
2022-10-28T00:57:42.636Z,8.70
2022-10-28T00:57:57.665Z,8.70
2022-10-28T00:58:12.027Z,8.70
2022-10-28T00:58:26.571Z,8.71
2022-10-28T00:58:39.814Z,8.71
2022-10-28T00:58:57.059Z,8.72
2022-10-28T00:59:16.737Z,8.72
2022-10-28T00:59:36.258Z,8.73
2022-10-28T00:59:53.406Z,8.74
2022-10-28T01:00:08.517Z,8.73
2022-10-28T01:00:21.417Z,8.73
2022-10-28T01:00:34.075Z,8.72
2022-10-28T01:00:47.989Z,8.72
2022-10-28T01:01:00.731Z,8.72
2022-10-28T01:01:13.353Z,8.73
2022-10-28T01:01:26.154Z,8.73
2022-10-28T01:01:39.025Z,8.73
2022-10-28T01:01:52.185Z,8.74
2022-10-28T01:02:05.485Z,8.73
2022-10-28T01:02:19.682Z,8.73
2022-10-28T01:02:35.977Z,8.74
2022-10-28T01:02:49.637Z,8.76
2022-10-28T01:03:02.565Z,8.74
2022-10-28T01:03:15.965Z,8.75
2022-10-28T01:03:28.583Z,8.75
2022-10-28T01:03:41.461Z,8.76
2022-10-28T01:03:56.947Z,8.76
2022-10-28T01:04:10.911Z,8.77
2022-10-28T01:04:23.833Z,8.76
2022-10-28T01:04:36.543Z,8.77
2022-10-28T01:04:49.667Z,8.77
2022-10-28T01:05:03.054Z,8.78
2022-10-28T01:05:18.023Z,8.78
2022-10-28T01:05:33.766Z,8.78
2022-10-28T01:05:48.255Z,8.80
2022-10-28T01:06:02.559Z,8.80
2022-10-28T01:06:15.501Z,8.80
2022-10-28T01:06:29.827Z,8.80
2022-10-28T01:06:42.921Z,8.81
2022-10-28T01:06:57.137Z,8.82
2022-10-28T01:07:10.747Z,8.82
2022-10-28T01:07:23.595Z,8.82
2022-10-28T01:07:37.175Z,8.83
2022-10-28T01:07:51.698Z,8.83
2022-10-28T01:08:05.766Z,8.85
2022-10-28T01:08:18.898Z,8.86
2022-10-28T01:08:32.234Z,8.86
2022-10-28T01:08:44.787Z,8.87
2022-10-28T01:09:00.106Z,8.87
2022-10-28T01:09:13.509Z,8.88
2022-10-28T01:09:44.705Z,8.88
2022-10-28T01:09:57.499Z,8.88
2022-10-28T01:10:11.655Z,8.88
2022-10-28T01:10:32.179Z,8.89
2022-10-28T01:10:58.713Z,8.90
2022-10-28T01:11:47.200Z,8.92
2022-10-28T01:12:09.081Z,8.91
2022-10-28T01:12:31.632Z,8.91
2022-10-28T01:12:55.848Z,8.93
2022-10-28T01:13:17.379Z,8.93
2022-10-28T01:13:40.501Z,8.93
2022-10-28T01:14:12.987Z,8.96
2022-10-28T01:14:41.993Z,8.93
2022-10-28T01:15:05.479Z,8.96
2022-10-28T01:15:28.927Z,8.97
2022-10-28T01:15:46.937Z,8.97
2022-10-28T01:16:06.531Z,8.97
2022-10-28T01:16:34.107Z,8.97
2022-10-28T01:17:01.666Z,8.98
2022-10-28T01:17:33.687Z,8.98
2022-10-28T01:17:58.439Z,8.98
2022-10-28T01:18:20.540Z,8.99
2022-10-28T01:18:41.593Z,8.98
2022-10-28T01:19:03.123Z,8.99
2022-10-28T01:19:58.286Z,9.00
2022-10-28T01:20:41.715Z,8.99
2022-10-28T01:21:32.415Z,9.01
2022-10-28T01:22:03.899Z,9.01
2022-10-28T01:22:21.747Z,9.00
2022-10-28T01:22:39.235Z,9.02
2022-10-28T01:22:58.877Z,9.02
2022-10-28T01:23:19.459Z,9.03
2022-10-28T01:23:36.485Z,9.02
2022-10-28T01:24:04.217Z,9.03
2022-10-28T01:24:36.342Z,9.04
2022-10-28T01:25:18.212Z,9.05
2022-10-28T01:25:56.707Z,9.06
2022-10-28T01:26:36.959Z,9.07
2022-10-28T01:27:14.501Z,9.08
2022-10-28T01:27:56.119Z,9.09
2022-10-28T01:28:28.651Z,9.09
2022-10-28T01:29:01.537Z,9.07
2022-10-28T01:29:59.905Z,9.12
2022-10-28T01:30:16.138Z,9.13
2022-10-28T01:30:35.959Z,9.12
2022-10-28T01:31:11.141Z,9.13
2022-10-28T01:31:35.461Z,9.13
2022-10-28T01:31:52.545Z,9.13
2022-10-28T01:32:12.117Z,9.12
2022-10-28T01:32:33.311Z,9.13
2022-10-28T01:32:56.035Z,9.14
2022-10-28T01:33:15.318Z,9.13
2022-10-28T01:33:35.498Z,9.13
2022-10-28T01:33:52.813Z,9.14
2022-10-28T01:34:14.483Z,9.15
2022-10-28T01:34:31.760Z,9.14
2022-10-28T01:34:54.185Z,9.14
2022-10-28T01:35:17.047Z,9.15
2022-10-28T01:35:34.930Z,9.17
2022-10-28T01:35:52.983Z,9.16
2022-10-28T01:36:12.423Z,9.16
2022-10-28T01:36:36.475Z,9.16
2022-10-28T01:36:58.627Z,9.17
2022-10-28T01:37:17.375Z,9.17
2022-10-28T01:37:34.621Z,9.16
2022-10-28T01:37:56.572Z,9.18
2022-10-28T01:38:21.773Z,9.18
2022-10-28T01:38:41.725Z,9.18
2022-10-28T01:39:03.284Z,9.18
2022-10-28T01:39:26.663Z,9.18
2022-10-28T01:39:48.356Z,9.18
2022-10-28T01:40:09.457Z,9.17
2022-10-28T01:40:33.428Z,9.17
2022-10-28T01:40:55.284Z,9.18
2022-10-28T01:41:12.182Z,9.18
2022-10-28T01:41:32.117Z,9.18
2022-10-28T01:41:52.859Z,9.17
2022-10-28T01:42:15.254Z,9.17
2022-10-28T01:42:32.492Z,9.17
2022-10-28T01:42:51.961Z,9.16
2022-10-28T01:43:14.146Z,9.17
2022-10-28T01:43:30.182Z,9.19
2022-10-28T01:43:47.364Z,9.18
2022-10-28T01:44:06.743Z,9.19
2022-10-28T01:44:26.435Z,9.19
2022-10-28T01:44:49.691Z,9.17
2022-10-28T01:45:09.807Z,9.20
2022-10-28T01:45:29.139Z,9.20
2022-10-28T01:45:50.151Z,9.21
2022-10-28T01:46:09.077Z,9.19
2022-10-28T01:46:27.981Z,9.22
2022-10-28T01:46:43.891Z,9.21
2022-10-28T01:47:02.575Z,9.22
2022-10-28T01:47:20.298Z,9.23
2022-10-28T01:47:37.603Z,9.23
2022-10-28T01:47:57.923Z,9.23
2022-10-28T01:48:14.895Z,9.24
2022-10-28T01:48:34.055Z,9.24
2022-10-28T01:48:51.038Z,9.26
2022-10-28T01:49:10.879Z,9.25
2022-10-28T01:49:29.326Z,9.26
2022-10-28T01:49:48.907Z,9.27
2022-10-28T01:50:05.772Z,9.27
2022-10-28T01:50:24.139Z,9.26
2022-10-28T01:50:41.955Z,9.29
2022-10-28T01:51:00.710Z,9.28
2022-10-28T01:51:19.833Z,9.29
2022-10-28T01:51:36.904Z,9.30
2022-10-28T01:51:54.281Z,9.30
2022-10-28T01:52:12.297Z,9.29
2022-10-28T01:52:29.070Z,9.31
2022-10-28T01:52:44.829Z,9.31
2022-10-28T01:53:01.276Z,9.32
2022-10-28T01:53:18.752Z,9.31
2022-10-28T01:53:35.907Z,9.32
2022-10-28T01:53:53.007Z,9.33
2022-10-28T01:54:09.899Z,9.32
2022-10-28T01:54:25.096Z,9.32
2022-10-28T01:54:40.959Z,9.33
2022-10-28T01:54:58.526Z,9.33
2022-10-28T01:55:15.843Z,9.34
2022-10-28T01:55:34.401Z,9.34
2022-10-28T01:55:52.226Z,9.35
2022-10-28T01:56:09.628Z,9.34
2022-10-28T01:56:25.130Z,9.35
2022-10-28T01:56:41.500Z,9.35
2022-10-28T01:56:57.181Z,9.35
2022-10-28T01:57:12.915Z,9.35
2022-10-28T01:57:29.229Z,9.36
2022-10-28T01:57:43.410Z,9.35
2022-10-28T01:57:59.549Z,9.35
2022-10-28T01:58:15.727Z,9.36
2022-10-28T01:58:31.685Z,9.35
2022-10-28T01:58:45.353Z,9.35
2022-10-28T01:59:01.980Z,9.36
2022-10-28T01:59:20.119Z,9.34
2022-10-28T01:59:34.778Z,9.35
2022-10-28T01:59:48.651Z,9.36
2022-10-28T02:00:02.091Z,9.36
2022-10-28T02:00:15.728Z,9.36
2022-10-28T02:00:29.893Z,9.37
2022-10-28T02:00:45.924Z,9.36
2022-10-28T02:01:00.983Z,9.37
2022-10-28T02:01:16.656Z,9.37
2022-10-28T02:01:31.724Z,9.36
2022-10-28T02:01:44.791Z,9.38
2022-10-28T02:01:58.016Z,9.38
2022-10-28T02:02:10.731Z,9.38
2022-10-28T02:02:24.901Z,9.37
2022-10-28T02:02:38.348Z,9.37
2022-10-28T02:02:51.596Z,9.38
2022-10-28T02:03:06.675Z,9.38
2022-10-28T02:03:19.423Z,9.39
2022-10-28T02:03:32.259Z,9.39
2022-10-28T02:03:46.927Z,9.38
2022-10-28T02:03:59.643Z,9.38
2022-10-28T02:04:12.286Z,9.40
2022-10-28T02:04:24.942Z,9.39
2022-10-28T02:04:37.498Z,9.40
2022-10-28T02:04:50.115Z,9.40
2022-10-28T02:05:27.539Z,9.41
2022-10-28T02:05:44.121Z,9.41
2022-10-28T02:05:59.776Z,9.40
2022-10-28T02:06:17.380Z,9.41
2022-10-28T02:06:32.945Z,9.41
2022-10-28T02:06:50.262Z,9.42
2022-10-28T02:07:03.839Z,9.42
2022-10-28T02:07:17.089Z,9.43
2022-10-28T02:07:29.668Z,9.42
2022-10-28T02:07:42.245Z,9.42
2022-10-28T02:07:59.763Z,9.42
2022-10-28T02:08:45.048Z,9.43
2022-10-28T02:09:07.975Z,9.42
2022-10-28T02:09:32.275Z,9.42
2022-10-28T02:10:01.460Z,9.42
2022-10-28T02:10:22.742Z,9.43
2022-10-28T02:10:42.079Z,9.42
2022-10-28T02:11:04.167Z,9.43
2022-10-28T02:11:34.404Z,9.43
2022-10-28T02:12:08.757Z,9.43
2022-10-28T02:12:26.657Z,9.43
2022-10-28T02:12:39.302Z,9.43
2022-10-28T02:12:56.531Z,9.43
2022-10-28T02:13:15.015Z,9.43
2022-10-28T02:13:39.006Z,9.44
2022-10-28T02:13:58.913Z,9.44
2022-10-28T02:14:25.475Z,9.45
2022-10-28T02:15:38.743Z,9.47
2022-10-28T02:16:00.935Z,9.47
2022-10-28T02:16:23.647Z,9.48
2022-10-28T02:16:47.970Z,9.48
2022-10-28T02:17:10.688Z,9.48
2022-10-28T02:17:37.522Z,9.48
2022-10-28T02:18:17.181Z,9.51
2022-10-28T02:18:40.112Z,9.51
2022-10-28T02:19:00.308Z,9.51
2022-10-28T02:19:18.897Z,9.50
2022-10-28T02:19:39.524Z,9.51
2022-10-28T02:20:00.878Z,9.53
2022-10-28T02:20:22.985Z,9.53
2022-10-28T02:20:46.551Z,9.53
2022-10-28T02:21:03.479Z,9.53
2022-10-28T02:21:29.487Z,9.54
2022-10-28T02:21:53.211Z,9.54
2022-10-28T02:22:15.943Z,9.56
2022-10-28T02:22:34.698Z,9.54
2022-10-28T02:22:53.429Z,9.56
2022-10-28T02:23:17.439Z,9.55
2022-10-28T02:23:42.417Z,9.56
2022-10-28T02:24:02.129Z,9.57
2022-10-28T02:24:21.517Z,9.56
2022-10-28T02:24:45.591Z,9.58
2022-10-28T02:25:07.797Z,9.58
2022-10-28T02:25:23.356Z,9.58
2022-10-28T02:25:42.520Z,9.58
2022-10-28T02:25:58.727Z,9.58
2022-10-28T02:26:21.813Z,9.58
2022-10-28T02:26:38.844Z,9.59
2022-10-28T02:26:56.907Z,9.59
2022-10-28T02:27:16.638Z,9.59
2022-10-28T02:27:34.891Z,9.59
2022-10-28T02:27:55.994Z,9.59
2022-10-28T02:28:37.939Z,9.60
2022-10-28T02:28:58.629Z,9.60
2022-10-28T02:29:17.532Z,9.60
2022-10-28T02:29:37.656Z,9.60
2022-10-28T02:29:56.084Z,9.60
2022-10-28T02:30:12.843Z,9.60
2022-10-28T02:30:32.957Z,9.60
2022-10-28T02:30:49.431Z,9.61
2022-10-28T02:31:07.787Z,9.59
2022-10-28T02:31:25.698Z,9.61
2022-10-28T02:31:42.805Z,9.60
2022-10-28T02:32:00.201Z,9.61
2022-10-28T02:32:16.336Z,9.61
2022-10-28T02:32:34.569Z,9.62
2022-10-28T02:32:52.773Z,9.61
2022-10-28T02:33:10.063Z,9.62
2022-10-28T02:33:26.924Z,9.62
2022-10-28T02:33:42.529Z,9.62
2022-10-28T02:34:00.743Z,9.62
2022-10-28T02:34:18.456Z,9.62
2022-10-28T02:34:35.757Z,9.63
2022-10-28T02:34:52.379Z,9.64
2022-10-28T02:35:11.399Z,9.63
2022-10-28T02:35:30.858Z,9.65
2022-10-28T02:35:48.126Z,9.65
2022-10-28T02:36:05.439Z,9.66
2022-10-28T02:36:20.041Z,9.64
2022-10-28T02:36:37.564Z,9.64
2022-10-28T02:36:54.096Z,9.65
2022-10-28T02:37:13.514Z,9.65
2022-10-28T02:37:30.732Z,9.65
2022-10-28T02:37:45.856Z,9.65
2022-10-28T02:38:01.760Z,9.65
2022-10-28T02:38:18.831Z,9.65
2022-10-28T02:38:35.264Z,9.68
2022-10-28T02:38:51.330Z,9.66
2022-10-28T02:39:06.470Z,9.67
2022-10-28T02:39:23.641Z,9.64
2022-10-28T02:39:41.452Z,9.65
2022-10-28T02:39:57.264Z,9.67
2022-10-28T02:40:20.325Z,9.65
2022-10-28T02:40:35.096Z,9.67
2022-10-28T02:41:16.007Z,9.67
2022-10-28T02:41:36.403Z,9.68
2022-10-28T02:41:54.048Z,9.68
2022-10-28T02:42:10.338Z,9.67
2022-10-28T02:42:28.189Z,9.68
2022-10-28T02:42:46.874Z,9.68
2022-10-28T02:43:04.277Z,9.69
2022-10-28T02:43:20.304Z,9.68
2022-10-28T02:43:34.946Z,9.68
2022-10-28T02:43:50.600Z,9.69
2022-10-28T02:44:09.126Z,9.69
2022-10-28T02:44:29.030Z,9.69
2022-10-28T02:44:46.171Z,9.69
2022-10-28T02:45:12.387Z,9.70
2022-10-28T02:45:29.724Z,9.70
2022-10-28T02:45:45.723Z,9.70
2022-10-28T02:46:03.600Z,9.71
2022-10-28T02:46:19.424Z,9.71
2022-10-28T02:46:35.442Z,9.71
2022-10-28T02:46:50.534Z,9.72
2022-10-28T02:47:12.792Z,9.70
2022-10-28T02:47:32.473Z,9.72
2022-10-28T02:47:50.166Z,9.71
2022-10-28T02:48:07.329Z,9.72
2022-10-28T02:48:25.701Z,9.73
2022-10-28T02:48:43.537Z,9.73
2022-10-28T02:49:00.523Z,9.72
2022-10-28T02:49:14.925Z,9.73
2022-10-28T02:49:30.203Z,9.74
2022-10-28T02:49:46.119Z,9.75
2022-10-28T02:50:04.254Z,9.75
2022-10-28T02:50:21.374Z,9.75
2022-10-28T02:50:38.609Z,9.76
2022-10-28T02:50:58.914Z,9.75
2022-10-28T02:51:16.362Z,9.76
2022-10-28T02:51:33.916Z,9.76
2022-10-28T02:51:52.455Z,9.78
2022-10-28T02:52:07.385Z,9.77
2022-10-28T02:52:23.040Z,9.78
2022-10-28T02:52:36.612Z,9.78
2022-10-28T02:52:54.649Z,9.78
2022-10-28T02:53:13.960Z,9.78
2022-10-28T02:53:31.865Z,9.79
2022-10-28T02:53:56.072Z,9.80
2022-10-28T02:54:11.979Z,9.80
2022-10-28T02:54:29.491Z,9.79
2022-10-28T02:54:46.002Z,9.80
2022-10-28T02:55:00.278Z,9.80
2022-10-28T02:55:13.996Z,9.79
2022-10-28T02:55:32.463Z,9.79
2022-10-28T02:55:49.492Z,9.79
2022-10-28T02:56:06.834Z,9.80
2022-10-28T02:56:21.570Z,9.79
2022-10-28T02:56:37.841Z,9.80
2022-10-28T02:56:56.727Z,9.79
2022-10-28T02:57:13.665Z,9.81
2022-10-28T02:57:29.297Z,9.81
2022-10-28T02:57:45.027Z,9.79
2022-10-28T02:57:58.188Z,9.81
2022-10-28T02:58:12.670Z,9.81
2022-10-28T02:58:25.280Z,9.81
2022-10-28T02:58:40.107Z,9.83
2022-10-28T02:58:53.103Z,9.82
2022-10-28T02:59:11.132Z,9.82
2022-10-28T02:59:25.207Z,9.83
2022-10-28T02:59:38.766Z,9.83
2022-10-28T02:59:53.459Z,9.83
2022-10-28T03:00:09.671Z,9.83
2022-10-28T03:00:24.610Z,9.84
2022-10-28T03:00:37.297Z,9.84
2022-10-28T03:00:50.879Z,9.86
2022-10-28T03:01:03.611Z,9.86
2022-10-28T03:01:18.460Z,9.86
2022-10-28T03:01:31.228Z,9.86
2022-10-28T03:01:45.439Z,9.88
2022-10-28T03:01:59.214Z,9.87
2022-10-28T03:02:12.021Z,9.88
2022-10-28T03:02:25.374Z,9.87
2022-10-28T03:02:37.968Z,9.88
2022-10-28T03:02:51.675Z,9.88
2022-10-28T03:03:04.520Z,9.89
2022-10-28T03:03:19.802Z,9.88
2022-10-28T03:03:32.399Z,9.89
2022-10-28T03:03:45.202Z,9.89
2022-10-28T03:03:57.805Z,9.89
2022-10-28T03:04:10.512Z,9.88
2022-10-28T03:04:24.198Z,9.91
2022-10-28T03:04:36.913Z,9.90
2022-10-28T03:04:49.528Z,9.91
2022-10-28T03:05:02.759Z,9.90
2022-10-28T03:05:15.636Z,9.92
2022-10-28T03:05:28.215Z,9.92
2022-10-28T03:05:40.833Z,9.92
2022-10-28T03:05:54.402Z,9.92
2022-10-28T03:06:07.049Z,9.92
2022-10-28T03:06:19.733Z,9.92
2022-10-28T03:06:32.341Z,9.93
2022-10-28T03:06:44.996Z,9.94
2022-10-28T03:06:57.617Z,9.95
2022-10-28T03:07:10.259Z,9.94
2022-10-28T03:07:22.962Z,9.94
2022-10-28T03:07:36.533Z,9.95
2022-10-28T03:07:49.197Z,9.94
2022-10-28T03:08:01.768Z,9.95
2022-10-28T03:08:14.385Z,9.95
2022-10-28T03:08:26.999Z,9.95
2022-10-28T03:08:39.687Z,9.94
2022-10-28T03:08:53.830Z,9.97
2022-10-28T03:09:06.475Z,9.96
2022-10-28T03:09:19.120Z,9.97
2022-10-28T03:09:31.682Z,9.97
2022-10-28T03:09:44.352Z,9.97
2022-10-28T03:09:57.119Z,9.97
2022-10-28T03:10:10.168Z,9.97
2022-10-28T03:10:23.784Z,9.97
2022-10-28T03:10:36.346Z,9.99
2022-10-28T03:10:49.777Z,9.99
2022-10-28T03:11:02.339Z,9.99
2022-10-28T03:11:14.941Z,9.99
2022-10-28T03:11:27.709Z,9.98
2022-10-28T03:11:40.332Z,9.98
2022-10-28T03:11:53.886Z,10.00
2022-10-28T03:12:06.646Z,9.99
2022-10-28T03:12:19.319Z,9.99
2022-10-28T03:12:31.944Z,9.99
2022-10-28T03:12:44.515Z,9.99
2022-10-28T03:12:57.120Z,9.98
2022-10-28T03:13:09.712Z,9.98
2022-10-28T03:13:23.275Z,9.98
2022-10-28T03:13:35.824Z,9.98
2022-10-28T03:13:48.420Z,9.99
2022-10-28T03:14:01.207Z,9.98
2022-10-28T03:14:15.369Z,9.97
2022-10-28T03:14:28.196Z,9.98
2022-10-28T03:14:40.954Z,9.98
2022-10-28T03:14:54.524Z,9.98
2022-10-28T03:15:08.155Z,9.99
2022-10-28T03:15:20.778Z,9.99
2022-10-28T03:15:33.395Z,9.99
2022-10-28T03:15:47.000Z,9.99
2022-10-28T03:15:59.576Z,9.99
2022-10-28T03:16:12.176Z,9.99
2022-10-28T03:16:26.623Z,9.99
2022-10-28T03:16:39.415Z,10.00
2022-10-28T03:16:53.341Z,10.00
2022-10-28T03:17:07.767Z,10.02
2022-10-28T03:17:20.294Z,10.00
2022-10-28T03:17:32.873Z,10.00
2022-10-28T03:17:45.439Z,10.01
2022-10-28T03:17:59.009Z,10.00
2022-10-28T03:18:11.625Z,9.99
2022-10-28T03:18:24.187Z,9.98
2022-10-28T03:18:36.716Z,9.98
2022-10-28T03:18:50.182Z,9.97
2022-10-28T03:19:02.781Z,9.97
2022-10-28T03:19:16.374Z,9.96
2022-10-28T03:19:29.158Z,9.95
2022-10-28T03:19:41.800Z,9.97
2022-10-28T03:19:54.354Z,9.96
2022-10-28T03:20:07.867Z,9.95
2022-10-28T03:20:20.432Z,9.96
2022-10-28T03:20:33.019Z,9.96
2022-10-28T03:20:46.599Z,9.97
2022-10-28T03:20:59.292Z,9.97
2022-10-28T03:21:11.908Z,9.97
2022-10-28T03:21:24.495Z,9.96
2022-10-28T03:21:37.032Z,9.96
2022-10-28T03:21:49.586Z,9.97
2022-10-28T03:22:02.148Z,9.96
2022-10-28T03:22:15.758Z,9.95
2022-10-28T03:22:28.331Z,9.96
2022-10-28T03:22:43.191Z,9.97
2022-10-28T03:22:56.136Z,9.96
2022-10-28T03:23:08.950Z,9.96
2022-10-28T03:23:21.475Z,9.97
2022-10-28T03:23:35.046Z,9.96
2022-10-28T03:23:47.657Z,9.96
2022-10-28T03:24:00.214Z,9.97
2022-10-28T03:24:12.957Z,9.96
2022-10-28T03:24:25.529Z,9.97
2022-10-28T03:24:39.080Z,9.97
2022-10-28T03:24:51.846Z,9.97
2022-10-28T03:25:05.327Z,9.96
2022-10-28T03:25:17.976Z,9.96
2022-10-28T03:25:30.566Z,9.95
2022-10-28T03:25:43.162Z,9.96
2022-10-28T03:25:55.702Z,9.95
2022-10-28T03:26:08.303Z,9.96
2022-10-28T03:26:21.821Z,9.96
2022-10-28T03:26:34.485Z,9.96
2022-10-28T03:26:47.098Z,9.95
2022-10-28T03:27:00.177Z,9.96
2022-10-28T03:27:12.737Z,9.96
2022-10-28T03:27:25.325Z,9.96
2022-10-28T03:27:40.797Z,9.96
2022-10-28T03:27:53.362Z,9.98
2022-10-28T03:28:05.915Z,9.98
2022-10-28T03:28:18.507Z,9.98
2022-10-28T03:28:31.049Z,9.99
2022-10-28T03:28:43.646Z,9.98
2022-10-28T03:28:57.388Z,9.98
2022-10-28T03:29:10.004Z,9.99
2022-10-28T03:29:22.569Z,9.98
2022-10-28T03:29:35.150Z,9.98
2022-10-28T03:29:47.719Z,9.97
2022-10-28T03:30:00.297Z,9.97
2022-10-28T03:30:14.493Z,9.97
2022-10-28T03:30:28.096Z,9.95
2022-10-28T03:30:40.641Z,9.96
2022-10-28T03:30:53.263Z,9.95
2022-10-28T03:31:06.005Z,9.96
2022-10-28T03:31:18.580Z,9.95
2022-10-28T03:31:31.155Z,9.95
2022-10-28T03:31:43.752Z,9.94
2022-10-28T03:31:57.670Z,9.94
2022-10-28T03:32:11.350Z,9.95
2022-10-28T03:32:24.002Z,9.94
2022-10-28T03:32:36.645Z,9.95
2022-10-28T03:32:49.287Z,9.95
2022-10-28T03:33:01.943Z,9.95
2022-10-28T03:33:14.942Z,9.95
2022-10-28T03:33:27.558Z,9.95
2022-10-28T03:33:40.139Z,9.95
2022-10-28T03:33:53.932Z,9.95
2022-10-28T03:34:06.490Z,9.95
2022-10-28T03:34:19.283Z,9.94
2022-10-28T03:34:32.203Z,9.92
2022-10-28T03:34:44.943Z,9.93
2022-10-28T03:34:57.492Z,9.92
2022-10-28T03:35:11.099Z,9.91
2022-10-28T03:35:23.775Z,9.92
2022-10-28T03:35:36.356Z,9.89
2022-10-28T03:35:49.156Z,9.92
2022-10-28T03:36:01.749Z,9.93
2022-10-28T03:36:15.299Z,9.89
2022-10-28T03:36:27.892Z,9.90
2022-10-28T03:36:40.499Z,9.89
2022-10-28T03:36:53.102Z,9.89
2022-10-28T03:37:05.721Z,9.90
2022-10-28T03:37:18.367Z,9.89
2022-10-28T03:37:30.901Z,9.91
2022-10-28T03:37:45.270Z,9.90
2022-10-28T03:37:57.849Z,9.90
2022-10-28T03:38:10.528Z,9.89